createdAt,value
2022-08-26T00:00:53.585Z,22.96
2022-08-26T00:01:53.870Z,22.94
2022-08-26T00:02:53.564Z,22.93
2022-08-26T00:03:53.614Z,22.94
2022-08-26T00:04:53.545Z,22.93
2022-08-26T00:05:53.517Z,22.91
2022-08-26T00:06:53.509Z,22.88
2022-08-26T00:07:53.497Z,22.85
2022-08-26T00:08:53.476Z,22.82
2022-08-26T00:09:54.504Z,22.81
2022-08-26T00:10:53.455Z,22.79
2022-08-26T00:11:53.437Z,22.79
2022-08-26T00:12:53.453Z,22.76
2022-08-26T00:13:53.431Z,22.78
2022-08-26T00:14:53.397Z,22.76
2022-08-26T00:15:53.386Z,22.78
2022-08-26T00:16:53.407Z,22.76
2022-08-26T00:17:53.366Z,22.78
2022-08-26T00:18:53.342Z,22.78
2022-08-26T00:19:53.353Z,22.79
2022-08-26T00:20:53.373Z,22.81
2022-08-26T00:21:53.315Z,22.79
2022-08-26T00:22:53.303Z,22.79
2022-08-26T00:23:53.286Z,22.79
2022-08-26T00:24:53.267Z,22.81
2022-08-26T00:25:53.263Z,22.76
2022-08-26T00:26:53.256Z,22.76
2022-08-26T00:27:53.236Z,22.76
2022-08-26T00:28:53.226Z,22.75
2022-08-26T00:29:53.227Z,22.74
2022-08-26T00:30:53.187Z,22.72
2022-08-26T00:31:53.232Z,22.70
2022-08-26T00:32:53.166Z,22.69
2022-08-26T00:33:53.175Z,22.69
2022-08-26T00:34:53.134Z,22.67
2022-08-26T00:35:53.134Z,22.66
2022-08-26T00:36:53.104Z,22.64
2022-08-26T00:37:53.106Z,22.64
2022-08-26T00:38:53.076Z,22.64
2022-08-26T00:39:53.121Z,22.61
2022-08-26T00:40:53.050Z,22.60
2022-08-26T00:41:53.045Z,22.61
2022-08-26T00:42:53.035Z,22.59
2022-08-26T00:43:53.024Z,22.59
2022-08-26T00:44:53.011Z,22.57
2022-08-26T00:45:53.072Z,22.56
2022-08-26T00:46:52.984Z,22.54
2022-08-26T00:47:52.974Z,22.52
2022-08-26T00:48:52.966Z,22.56
2022-08-26T00:49:52.942Z,22.56
2022-08-26T00:50:52.928Z,22.56
2022-08-26T00:51:52.925Z,22.57
2022-08-26T00:52:52.917Z,22.59
2022-08-26T00:53:52.886Z,22.57
2022-08-26T00:54:52.886Z,22.57
2022-08-26T00:55:52.887Z,22.59
2022-08-26T00:56:52.864Z,22.60
2022-08-26T00:57:52.847Z,22.61
2022-08-26T00:58:52.826Z,22.60
2022-08-26T00:59:52.815Z,22.63
2022-08-26T01:00:52.852Z,22.64
2022-08-26T01:01:52.831Z,22.64
2022-08-26T01:02:52.772Z,22.66
2022-08-26T01:03:52.764Z,22.66
2022-08-26T01:04:55.610Z,22.66
2022-08-26T01:05:52.723Z,22.66
2022-08-26T01:06:52.707Z,22.67
2022-08-26T01:07:52.711Z,22.69
2022-08-26T01:08:52.703Z,22.69
2022-08-26T01:09:52.684Z,22.67
2022-08-26T01:10:55.819Z,22.67
2022-08-26T01:11:52.665Z,22.70
2022-08-26T01:12:52.645Z,22.67
2022-08-26T01:13:52.633Z,22.69
2022-08-26T01:14:52.602Z,22.70
2022-08-26T01:15:52.593Z,22.72
2022-08-26T01:16:52.573Z,22.74
2022-08-26T01:17:52.764Z,22.72
2022-08-26T01:18:52.565Z,22.76
2022-08-26T01:19:52.542Z,22.76
2022-08-26T01:20:52.534Z,22.75
2022-08-26T01:21:53.526Z,22.76
2022-08-26T01:22:52.508Z,22.76
2022-08-26T01:23:57.743Z,22.79
2022-08-26T01:24:53.480Z,22.78
2022-08-26T01:25:52.463Z,22.78
2022-08-26T01:26:52.440Z,22.76
2022-08-26T01:27:52.455Z,22.78
2022-08-26T01:28:52.427Z,22.78
2022-08-26T01:29:52.433Z,22.78
2022-08-26T01:30:52.403Z,22.78
2022-08-26T01:31:52.440Z,22.78
2022-08-26T01:32:52.384Z,22.78
2022-08-26T01:33:52.363Z,22.76
2022-08-26T01:34:52.353Z,22.78
2022-08-26T01:35:52.335Z,22.76
2022-08-26T01:36:52.313Z,22.76
2022-08-26T01:37:52.326Z,22.76
2022-08-26T01:38:52.292Z,22.75
2022-08-26T01:39:52.339Z,22.75
2022-08-26T01:40:52.263Z,22.75
2022-08-26T01:41:53.534Z,22.72
2022-08-26T01:42:52.264Z,22.74
2022-08-26T01:43:52.243Z,22.72
2022-08-26T01:44:52.265Z,22.70
2022-08-26T01:45:52.245Z,22.70
2022-08-26T01:46:52.218Z,22.69
2022-08-26T01:47:56.885Z,22.67
2022-08-26T01:48:54.570Z,22.66
2022-08-26T01:49:53.726Z,22.63
2022-08-26T01:50:52.160Z,22.61
2022-08-26T01:51:52.111Z,22.57
2022-08-26T01:52:54.349Z,22.57
2022-08-26T01:53:52.092Z,22.54
2022-08-26T01:54:52.091Z,22.54
2022-08-26T01:55:52.063Z,22.54
2022-08-26T01:56:52.052Z,22.51
2022-08-26T01:57:52.039Z,22.51
2022-08-26T01:58:52.012Z,22.49
2022-08-26T01:59:52.013Z,22.49
2022-08-26T02:00:52.028Z,22.49
2022-08-26T02:01:52.820Z,22.48
2022-08-26T02:02:52.273Z,22.45
2022-08-26T02:03:51.994Z,22.45
2022-08-26T02:04:51.996Z,22.42
2022-08-26T02:05:51.932Z,22.42
2022-08-26T02:06:51.923Z,22.41
2022-08-26T02:07:51.914Z,22.41
2022-08-26T02:08:51.891Z,22.41
2022-08-26T02:09:51.881Z,22.38
2022-08-26T02:10:51.862Z,22.38
2022-08-26T02:11:58.872Z,22.38
2022-08-26T02:12:54.553Z,22.36
2022-08-26T02:13:51.832Z,22.35
2022-08-26T02:14:51.814Z,22.35
2022-08-26T02:15:51.839Z,22.36
2022-08-26T02:16:51.799Z,22.33
2022-08-26T02:17:52.638Z,22.33
2022-08-26T02:18:53.331Z,22.31
2022-08-26T02:19:51.760Z,22.31
2022-08-26T02:20:51.834Z,22.31
2022-08-26T02:21:51.962Z,22.31
2022-08-26T02:22:51.717Z,22.30
2022-08-26T02:23:51.713Z,22.30
2022-08-26T02:24:51.728Z,22.29
2022-08-26T02:25:51.671Z,22.27
2022-08-26T02:26:51.656Z,22.27
2022-08-26T02:27:51.666Z,22.26
2022-08-26T02:28:51.655Z,22.26
2022-08-26T02:29:51.673Z,22.24
2022-08-26T02:30:51.634Z,22.21
2022-08-26T02:31:51.648Z,22.21
2022-08-26T02:32:51.602Z,22.20
2022-08-26T02:33:51.597Z,22.20
2022-08-26T02:34:51.599Z,22.21
2022-08-26T02:35:51.549Z,22.20
2022-08-26T02:36:51.553Z,22.17
2022-08-26T02:37:51.554Z,22.17
2022-08-26T02:38:52.103Z,22.15
2022-08-26T02:39:51.544Z,22.14
2022-08-26T02:40:51.506Z,22.14
2022-08-26T02:41:51.521Z,22.14
2022-08-26T02:42:53.030Z,22.11
2022-08-26T02:43:51.477Z,22.08
2022-08-26T02:44:51.468Z,22.08
2022-08-26T02:45:51.402Z,22.08
2022-08-26T02:46:51.473Z,22.08
2022-08-26T02:47:51.391Z,22.06
2022-08-26T02:48:51.365Z,22.05
2022-08-26T02:49:51.388Z,22.02
2022-08-26T02:50:51.352Z,22.05
2022-08-26T02:51:51.347Z,22.04
2022-08-26T02:52:51.349Z,22.02
2022-08-26T02:53:51.302Z,22.02
2022-08-26T02:54:51.294Z,22.02
2022-08-26T02:55:51.342Z,22.01
2022-08-26T02:56:51.317Z,21.99
2022-08-26T02:57:51.269Z,21.99
2022-08-26T02:58:51.261Z,21.94
2022-08-26T02:59:51.236Z,21.94
2022-08-26T03:00:52.932Z,21.93
2022-08-26T03:01:51.229Z,21.91
2022-08-26T03:02:51.209Z,21.91
2022-08-26T03:03:51.181Z,21.90
2022-08-26T03:04:58.139Z,21.86
2022-08-26T03:05:52.193Z,21.83
2022-08-26T03:06:52.851Z,21.85
2022-08-26T03:07:51.190Z,21.85
2022-08-26T03:08:51.130Z,21.85
2022-08-26T03:09:51.117Z,21.85
2022-08-26T03:10:51.120Z,21.82
2022-08-26T03:11:51.082Z,21.82
2022-08-26T03:12:51.084Z,21.81
2022-08-26T03:13:51.072Z,21.79
2022-08-26T03:14:51.043Z,21.82
2022-08-26T03:15:51.126Z,21.79
2022-08-26T03:16:51.004Z,21.77
2022-08-26T03:17:51.002Z,21.79
2022-08-26T03:18:52.423Z,21.77
2022-08-26T03:19:57.044Z,21.77
2022-08-26T03:20:51.963Z,21.79
2022-08-26T03:21:50.950Z,21.81
2022-08-26T03:22:50.931Z,21.81
2022-08-26T03:23:50.921Z,21.81
2022-08-26T03:24:50.923Z,21.81
2022-08-26T03:25:50.891Z,21.81
2022-08-26T03:26:52.648Z,21.82
2022-08-26T03:27:50.867Z,21.81
2022-08-26T03:28:50.858Z,21.79
2022-08-26T03:29:50.847Z,21.81
2022-08-26T03:30:50.832Z,21.82
2022-08-26T03:31:50.907Z,21.82
2022-08-26T03:32:50.908Z,21.82
2022-08-26T03:33:50.783Z,21.83
2022-08-26T03:34:50.782Z,21.85
2022-08-26T03:35:50.922Z,21.85
2022-08-26T03:36:50.771Z,21.86
2022-08-26T03:37:50.775Z,21.86
2022-08-26T03:38:50.745Z,21.85
2022-08-26T03:39:50.741Z,21.85
2022-08-26T03:40:50.714Z,21.82
2022-08-26T03:41:50.701Z,21.83
2022-08-26T03:42:50.692Z,21.82
2022-08-26T03:43:50.774Z,21.81
2022-08-26T03:44:50.651Z,21.79
2022-08-26T03:45:51.279Z,21.79
2022-08-26T03:46:50.656Z,21.79
2022-08-26T03:47:50.642Z,21.81
2022-08-26T03:48:50.592Z,21.77
2022-08-26T03:49:50.615Z,21.79
2022-08-26T03:50:50.625Z,21.79
2022-08-26T03:51:50.607Z,21.79
2022-08-26T03:52:50.565Z,21.79
2022-08-26T03:53:50.568Z,21.81
2022-08-26T03:54:50.553Z,21.75
2022-08-26T03:55:51.996Z,21.77
2022-08-26T03:56:50.481Z,21.77
2022-08-26T03:57:50.503Z,21.77
2022-08-26T03:58:50.480Z,21.74
2022-08-26T03:59:50.465Z,21.77
2022-08-26T04:00:55.456Z,21.74
2022-08-26T04:01:51.501Z,21.71
2022-08-26T04:02:50.531Z,21.71
2022-08-26T04:03:50.416Z,21.73
2022-08-26T04:04:50.396Z,21.74
2022-08-26T04:05:50.390Z,21.74
2022-08-26T04:06:50.367Z,21.75
2022-08-26T04:07:50.486Z,21.77
2022-08-26T04:08:50.345Z,21.81
2022-08-26T04:09:50.327Z,21.79
2022-08-26T04:10:50.350Z,21.79
2022-08-26T04:11:50.847Z,21.81
2022-08-26T04:12:50.298Z,21.82
2022-08-26T04:13:50.280Z,21.82
2022-08-26T04:14:50.289Z,21.83
2022-08-26T04:15:50.295Z,21.86
2022-08-26T04:16:50.240Z,21.86
2022-08-26T04:17:50.219Z,21.86
2022-08-26T04:18:50.241Z,21.90
2022-08-26T04:19:50.201Z,21.91
2022-08-26T04:20:50.271Z,21.91
2022-08-26T04:21:50.185Z,21.93
2022-08-26T04:22:50.161Z,21.93
2022-08-26T04:23:50.170Z,21.94
2022-08-26T04:24:50.149Z,21.90
2022-08-26T04:25:50.124Z,21.91
2022-08-26T04:26:50.173Z,21.94
2022-08-26T04:27:50.092Z,21.94
2022-08-26T04:28:50.142Z,21.96
2022-08-26T04:29:54.717Z,21.96
2022-08-26T04:30:51.079Z,21.98
2022-08-26T04:31:50.059Z,21.99
2022-08-26T04:32:51.033Z,22.01
2022-08-26T04:33:50.066Z,22.02
2022-08-26T04:34:50.049Z,22.02
2022-08-26T04:35:50.049Z,22.04
2022-08-26T04:36:50.034Z,22.05
2022-08-26T04:37:49.987Z,22.04
2022-08-26T04:38:49.948Z,22.02
2022-08-26T04:39:49.969Z,22.02
2022-08-26T04:40:50.013Z,22.02
2022-08-26T04:41:49.917Z,22.02
2022-08-26T04:42:49.975Z,22.02
2022-08-26T04:43:49.917Z,22.02
2022-08-26T04:44:49.871Z,22.05
2022-08-26T04:45:49.937Z,22.04
2022-08-26T04:46:49.953Z,22.02
2022-08-26T04:47:49.863Z,22.02
2022-08-26T04:48:49.835Z,22.05
2022-08-26T04:49:49.842Z,22.05
2022-08-26T04:50:49.831Z,22.08
2022-08-26T04:51:49.809Z,22.08
2022-08-26T04:52:49.852Z,22.09
2022-08-26T04:53:49.771Z,22.12
2022-08-26T04:54:49.771Z,22.14
2022-08-26T04:55:51.562Z,22.17
2022-08-26T04:56:50.719Z,22.19
2022-08-26T04:57:49.705Z,22.21
2022-08-26T04:58:49.691Z,22.24
2022-08-26T04:59:49.682Z,22.26
2022-08-26T05:00:49.681Z,22.27
2022-08-26T05:01:49.853Z,22.30
2022-08-26T05:02:49.693Z,22.31
2022-08-26T05:03:49.751Z,22.33
2022-08-26T05:04:49.620Z,22.35
2022-08-26T05:05:49.623Z,22.38
2022-08-26T05:06:49.592Z,22.41
2022-08-26T05:07:49.934Z,22.44
2022-08-26T05:08:49.562Z,22.48
2022-08-26T05:09:49.547Z,22.49
2022-08-26T05:10:49.543Z,22.51
2022-08-26T05:11:52.162Z,22.54
2022-08-26T05:12:49.611Z,22.56
2022-08-26T05:13:49.527Z,22.57
2022-08-26T05:14:49.499Z,22.59
2022-08-26T05:15:49.499Z,22.57
2022-08-26T05:16:49.456Z,22.56
2022-08-26T05:17:49.506Z,22.59
2022-08-26T05:18:49.452Z,22.57
2022-08-26T05:19:49.409Z,22.60
2022-08-26T05:20:49.432Z,22.61
2022-08-26T05:21:49.428Z,22.66
2022-08-26T05:22:49.404Z,22.66
2022-08-26T05:23:49.473Z,22.64
2022-08-26T05:24:49.370Z,22.67
2022-08-26T05:25:49.376Z,22.67
2022-08-26T05:26:49.348Z,22.69
2022-08-26T05:27:49.317Z,22.70
2022-08-26T05:28:49.297Z,22.72
2022-08-26T05:29:54.435Z,22.72
2022-08-26T05:30:50.306Z,22.75
2022-08-26T05:31:49.265Z,22.76
2022-08-26T05:32:52.522Z,22.79
2022-08-26T05:33:50.274Z,22.81
2022-08-26T05:34:49.224Z,22.85
2022-08-26T05:35:49.236Z,22.85
2022-08-26T05:36:49.216Z,22.85
2022-08-26T05:37:49.299Z,22.86
2022-08-26T05:38:49.193Z,22.91
2022-08-26T05:39:51.162Z,22.93
2022-08-26T05:40:49.166Z,22.94
2022-08-26T05:41:49.137Z,22.97
2022-08-26T05:42:49.134Z,23.01
2022-08-26T05:43:49.115Z,23.03
2022-08-26T05:44:53.858Z,23.07
2022-08-26T05:45:50.088Z,23.06
2022-08-26T05:46:49.118Z,23.12
2022-08-26T05:47:49.064Z,23.15
2022-08-26T05:48:49.056Z,23.16
2022-08-26T05:49:51.445Z,23.19
2022-08-26T05:50:49.052Z,23.19
2022-08-26T05:51:49.057Z,23.21
2022-08-26T05:52:49.027Z,23.22
2022-08-26T05:53:54.599Z,23.23
2022-08-26T05:54:49.964Z,23.23
2022-08-26T05:55:48.943Z,23.21
2022-08-26T05:56:48.952Z,23.22
2022-08-26T05:57:48.962Z,23.19
2022-08-26T05:58:49.301Z,23.14
2022-08-26T05:59:48.930Z,23.16
2022-08-26T06:00:48.936Z,23.19
2022-08-26T06:01:49.005Z,23.22
2022-08-26T06:02:48.902Z,23.26
2022-08-26T06:03:48.915Z,23.31
2022-08-26T06:04:48.842Z,23.31
2022-08-26T06:05:48.853Z,23.32
2022-08-26T06:06:48.835Z,23.32
2022-08-26T06:07:48.808Z,23.34
2022-08-26T06:08:48.832Z,23.37
2022-08-26T06:09:48.792Z,23.39
2022-08-26T06:10:48.833Z,23.42
2022-08-26T06:11:48.777Z,23.45
2022-08-26T06:12:48.785Z,23.52
2022-08-26T06:13:48.723Z,23.54
2022-08-26T06:14:49.021Z,23.56
2022-08-26T06:15:48.763Z,23.56
2022-08-26T06:16:48.684Z,23.53
2022-08-26T06:17:48.705Z,23.54
2022-08-26T06:18:48.663Z,23.59
2022-08-26T06:19:48.644Z,23.64
2022-08-26T06:20:57.427Z,23.63
2022-08-26T06:21:53.953Z,23.64
2022-08-26T06:22:48.608Z,23.67
2022-08-26T06:23:48.603Z,23.68
2022-08-26T06:24:49.609Z,23.69
2022-08-26T06:25:48.558Z,23.72
2022-08-26T06:26:50.357Z,23.74
2022-08-26T06:27:48.550Z,23.72
2022-08-26T06:28:48.520Z,23.77
2022-08-26T06:29:48.525Z,23.78
2022-08-26T06:30:48.569Z,23.82
2022-08-26T06:31:48.499Z,23.87
2022-08-26T06:32:48.520Z,23.87
2022-08-26T06:33:48.470Z,23.90
2022-08-26T06:34:49.415Z,23.93
2022-08-26T06:35:48.450Z,23.96
2022-08-26T06:36:48.418Z,23.97
2022-08-26T06:37:48.524Z,24.00
2022-08-26T06:38:48.389Z,24.04
2022-08-26T06:39:48.402Z,24.02
2022-08-26T06:40:48.403Z,23.97
2022-08-26T06:41:48.382Z,23.99
2022-08-26T06:42:48.367Z,24.00
2022-08-26T06:43:48.376Z,24.09
2022-08-26T06:44:48.352Z,24.14
2022-08-26T06:45:48.321Z,24.18
2022-08-26T06:46:50.275Z,24.23
2022-08-26T06:47:48.285Z,24.27
2022-08-26T06:48:49.124Z,24.30
2022-08-26T06:49:48.430Z,24.30
2022-08-26T06:50:48.233Z,24.34
2022-08-26T06:51:48.336Z,24.41
2022-08-26T06:52:49.994Z,24.41
2022-08-26T06:53:48.325Z,24.42
2022-08-26T06:54:48.170Z,24.41
2022-08-26T06:55:48.860Z,24.42
2022-08-26T06:56:48.172Z,24.49
2022-08-26T06:57:48.194Z,24.48
2022-08-26T06:58:48.122Z,24.49
2022-08-26T06:59:48.115Z,24.51
2022-08-26T07:00:48.803Z,24.55
2022-08-26T07:01:49.740Z,24.60
2022-08-26T07:02:48.186Z,24.63
2022-08-26T07:03:48.278Z,24.66
2022-08-26T07:04:48.130Z,24.68
2022-08-26T07:05:48.072Z,24.70
2022-08-26T07:06:48.823Z,24.74
2022-08-26T07:07:48.018Z,24.75
2022-08-26T07:08:48.018Z,24.75
2022-08-26T07:09:48.889Z,24.79
2022-08-26T07:10:47.998Z,24.82
2022-08-26T07:11:48.057Z,24.86
2022-08-26T07:12:48.011Z,24.86
2022-08-26T07:13:47.940Z,24.84
2022-08-26T07:14:48.895Z,24.87
2022-08-26T07:15:48.009Z,24.84
2022-08-26T07:16:48.922Z,24.86
2022-08-26T07:17:47.916Z,24.90
2022-08-26T07:18:47.881Z,24.97
2022-08-26T07:19:47.868Z,25.01
2022-08-26T07:20:47.897Z,25.05
2022-08-26T07:21:47.837Z,25.04
2022-08-26T07:22:47.838Z,25.07
2022-08-26T07:23:47.839Z,25.12
2022-08-26T07:24:47.902Z,25.12
2022-08-26T07:25:47.820Z,25.16
2022-08-26T07:26:47.780Z,25.22
2022-08-26T07:27:53.920Z,25.29
2022-08-26T07:28:48.772Z,25.31
2022-08-26T07:29:47.748Z,25.35
2022-08-26T07:30:47.792Z,25.38
2022-08-26T07:31:47.725Z,25.41
2022-08-26T07:32:47.706Z,25.44
2022-08-26T07:33:47.700Z,25.49
2022-08-26T07:34:47.695Z,25.57
2022-08-26T07:35:47.677Z,25.63
2022-08-26T07:36:47.667Z,25.67
2022-08-26T07:37:47.638Z,25.72
2022-08-26T07:38:47.740Z,25.78
2022-08-26T07:39:47.721Z,25.83
2022-08-26T07:40:47.611Z,25.89
2022-08-26T07:41:47.635Z,25.94
2022-08-26T07:42:47.566Z,25.98
2022-08-26T07:43:47.599Z,25.96
2022-08-26T07:44:47.593Z,25.94
2022-08-26T07:45:47.584Z,25.93
2022-08-26T07:46:52.206Z,25.97
2022-08-26T07:47:49.407Z,25.97
2022-08-26T07:48:47.515Z,25.97
2022-08-26T07:49:47.490Z,25.98
2022-08-26T07:50:50.138Z,25.94
2022-08-26T07:51:47.458Z,25.96
2022-08-26T07:52:47.461Z,26.00
2022-08-26T07:53:48.031Z,26.01
2022-08-26T07:54:48.419Z,26.00
2022-08-26T07:55:47.439Z,26.00
2022-08-26T07:56:47.424Z,26.00
2022-08-26T07:57:47.383Z,26.00
2022-08-26T07:58:50.966Z,26.08
2022-08-26T07:59:47.398Z,26.09
2022-08-26T08:00:47.332Z,26.12
2022-08-26T08:01:47.393Z,26.13
2022-08-26T08:02:47.321Z,26.20
2022-08-26T08:03:47.315Z,26.24
2022-08-26T08:04:47.369Z,26.32
2022-08-26T08:05:47.332Z,26.36
2022-08-26T08:06:47.274Z,26.32
2022-08-26T08:07:47.266Z,26.34
2022-08-26T08:08:47.233Z,26.32
2022-08-26T08:09:47.405Z,26.32
2022-08-26T08:10:48.750Z,26.28
2022-08-26T08:11:47.195Z,26.21
2022-08-26T08:12:54.211Z,26.23
2022-08-26T08:13:47.169Z,26.24
2022-08-26T08:14:47.241Z,26.23
2022-08-26T08:15:47.168Z,26.19
2022-08-26T08:16:47.219Z,26.20
2022-08-26T08:17:50.537Z,26.21
2022-08-26T08:18:47.088Z,26.29
2022-08-26T08:19:47.099Z,26.32
2022-08-26T08:21:04.684Z,26.31
2022-08-26T08:21:48.111Z,26.27
2022-08-26T08:22:47.053Z,26.29
2022-08-26T08:23:47.032Z,26.32
2022-08-26T08:24:49.947Z,26.36
2022-08-26T08:25:48.067Z,26.41
2022-08-26T08:26:47.027Z,26.41
2022-08-26T08:27:47.009Z,26.38
2022-08-26T08:28:47.855Z,26.41
2022-08-26T08:29:46.960Z,26.44
2022-08-26T08:30:47.063Z,26.47
2022-08-26T08:32:02.345Z,26.54
2022-08-26T08:32:47.918Z,26.59
2022-08-26T08:33:46.935Z,26.66
2022-08-26T08:34:46.898Z,26.66
2022-08-26T08:35:46.888Z,26.71
2022-08-26T08:36:46.858Z,26.81
2022-08-26T08:37:46.867Z,26.93
2022-08-26T08:38:46.849Z,26.98
2022-08-26T08:39:46.847Z,27.06
2022-08-26T08:40:46.829Z,27.11
2022-08-26T08:41:46.812Z,27.16
2022-08-26T08:42:46.901Z,27.20
2022-08-26T08:43:46.779Z,27.24
2022-08-26T08:44:52.188Z,27.28
2022-08-26T08:45:47.831Z,27.30
2022-08-26T08:46:46.737Z,27.28
2022-08-26T08:47:46.726Z,27.27
2022-08-26T08:48:46.711Z,27.28
2022-08-26T08:49:46.708Z,27.27
2022-08-26T08:50:46.703Z,27.27
2022-08-26T08:51:46.689Z,27.28
2022-08-26T08:52:46.659Z,27.27
2022-08-26T08:53:46.648Z,27.24
2022-08-26T08:54:46.627Z,27.25
2022-08-26T08:55:46.632Z,27.27
2022-08-26T08:56:46.637Z,27.33
2022-08-26T08:57:46.607Z,27.34
2022-08-26T08:58:46.599Z,27.39
2022-08-26T08:59:46.569Z,27.46
2022-08-26T09:00:46.586Z,27.45
2022-08-26T09:01:46.551Z,27.39
2022-08-26T09:02:47.599Z,27.39
2022-08-26T09:03:46.515Z,27.35
2022-08-26T09:04:46.536Z,27.33
2022-08-26T09:05:48.879Z,27.34
2022-08-26T09:06:46.507Z,27.31
2022-08-26T09:07:47.015Z,27.33
2022-08-26T09:08:46.446Z,27.33
2022-08-26T09:09:46.449Z,27.31
2022-08-26T09:10:46.452Z,27.35
2022-08-26T09:11:46.410Z,27.42
2022-08-26T09:12:46.398Z,27.43
2022-08-26T09:13:46.398Z,27.58
2022-08-26T09:14:46.399Z,27.74
2022-08-26T09:15:46.380Z,27.88
2022-08-26T09:16:46.391Z,28.03
2022-08-26T09:17:46.329Z,28.13
2022-08-26T09:18:46.329Z,28.02
2022-08-26T09:19:46.337Z,27.95
2022-08-26T09:20:46.599Z,27.90
2022-08-26T09:21:46.277Z,27.87
2022-08-26T09:22:46.267Z,27.83
2022-08-26T09:23:49.450Z,27.84
2022-08-26T09:24:48.527Z,27.84
2022-08-26T09:25:46.261Z,27.86
2022-08-26T09:26:47.335Z,27.84
2022-08-26T09:27:46.219Z,27.88
2022-08-26T09:28:47.338Z,27.96
2022-08-26T09:29:46.189Z,28.01
2022-08-26T09:30:46.241Z,28.01
2022-08-26T09:31:46.169Z,28.03
2022-08-26T09:32:55.937Z,28.02
2022-08-26T09:33:47.150Z,28.01
2022-08-26T09:34:46.168Z,28.01
2022-08-26T09:35:46.107Z,28.05
2022-08-26T09:36:46.088Z,28.11
2022-08-26T09:38:46.106Z,28.32
2022-08-26T09:39:46.070Z,28.39
2022-08-26T09:40:46.045Z,28.42
2022-08-26T09:41:47.030Z,28.48
2022-08-26T09:42:46.017Z,28.48
2022-08-26T09:43:46.046Z,28.58
2022-08-26T09:44:45.999Z,28.73
2022-08-26T09:45:50.798Z,28.88
2022-08-26T09:46:46.982Z,29.00
2022-08-26T09:47:45.965Z,29.08
2022-08-26T09:48:45.938Z,29.18
2022-08-26T09:49:45.952Z,29.29
2022-08-26T09:50:45.918Z,29.29
2022-08-26T09:51:45.909Z,29.12
2022-08-26T09:52:45.897Z,29.02
2022-08-26T09:53:45.899Z,28.98
2022-08-26T09:54:46.256Z,29.05
2022-08-26T09:55:45.864Z,29.07
2022-08-26T09:56:45.851Z,29.08
2022-08-26T09:57:46.320Z,29.12
2022-08-26T09:58:45.831Z,29.12
2022-08-26T09:59:45.818Z,29.26
2022-08-26T10:00:45.832Z,29.30
2022-08-26T10:01:45.915Z,29.27
2022-08-26T10:02:47.862Z,29.33
2022-08-26T10:03:45.851Z,29.39
2022-08-26T10:04:45.830Z,29.35
2022-08-26T10:05:45.732Z,29.26
2022-08-26T10:06:45.765Z,29.14
2022-08-26T10:07:45.717Z,29.07
2022-08-26T10:08:47.617Z,28.98
2022-08-26T10:09:45.712Z,28.95
2022-08-26T10:10:45.741Z,28.91
2022-08-26T10:11:45.667Z,28.91
2022-08-26T10:12:45.658Z,28.97
2022-08-26T10:13:45.632Z,29.08
2022-08-26T10:15:50.052Z,29.21
2022-08-26T10:16:46.631Z,29.20
2022-08-26T10:17:45.577Z,29.29
2022-08-26T10:18:45.570Z,29.30
2022-08-26T10:19:56.114Z,29.21
2022-08-26T10:20:46.563Z,29.21
2022-08-26T10:21:45.553Z,29.14
2022-08-26T10:22:45.501Z,29.17
2022-08-26T10:23:45.505Z,29.15
2022-08-26T10:24:46.395Z,29.18
2022-08-26T10:25:45.483Z,29.23
2022-08-26T10:26:45.460Z,29.30
2022-08-26T10:27:51.000Z,29.39
2022-08-26T10:28:46.431Z,29.39
2022-08-26T10:29:45.429Z,29.37
2022-08-26T10:30:45.401Z,29.36
2022-08-26T10:31:45.444Z,29.44
2022-08-26T10:32:45.385Z,29.30
2022-08-26T10:33:45.383Z,29.17
2022-08-26T10:34:45.370Z,29.11
2022-08-26T10:35:45.343Z,29.03
2022-08-26T10:37:10.595Z,28.94
2022-08-26T10:37:46.308Z,28.88
2022-08-26T10:38:45.302Z,28.91
2022-08-26T10:39:45.987Z,28.85
2022-08-26T10:40:45.379Z,28.82
2022-08-26T10:41:45.273Z,28.79
2022-08-26T10:42:45.254Z,28.76
2022-08-26T10:43:45.237Z,28.74
2022-08-26T10:44:45.242Z,28.80
2022-08-26T10:45:45.269Z,28.83
2022-08-26T10:46:45.211Z,28.91
2022-08-26T10:47:45.191Z,28.97
2022-08-26T10:48:45.181Z,29.02
2022-08-26T10:49:45.182Z,29.03
2022-08-26T10:50:45.163Z,29.03
2022-08-26T10:51:45.635Z,29.07
2022-08-26T10:52:45.135Z,29.20
2022-08-26T10:53:45.115Z,29.29
2022-08-26T10:54:45.118Z,29.39
2022-08-26T10:55:45.088Z,29.44
2022-08-26T10:56:45.073Z,29.51
2022-08-26T10:57:45.073Z,29.54
2022-08-26T10:58:45.049Z,29.62
2022-08-26T10:59:45.044Z,29.63
2022-08-26T11:00:45.100Z,29.60
2022-08-26T11:01:45.078Z,29.66
2022-08-26T11:02:47.546Z,29.76
2022-08-26T11:03:45.111Z,29.84
2022-08-26T11:04:48.415Z,29.92
2022-08-26T11:05:44.976Z,30.07
2022-08-26T11:06:44.941Z,30.04
2022-08-26T11:07:44.932Z,30.06
2022-08-26T11:08:44.969Z,30.04
2022-08-26T11:09:44.917Z,30.00
2022-08-26T11:10:44.902Z,29.94
2022-08-26T11:11:44.895Z,29.84
2022-08-26T11:12:44.865Z,29.64
2022-08-26T11:13:44.859Z,29.49
2022-08-26T11:14:53.528Z,29.41
2022-08-26T11:15:45.831Z,29.39
2022-08-26T11:16:44.862Z,29.37
2022-08-26T11:17:44.879Z,29.41
2022-08-26T11:18:44.796Z,29.37
2022-08-26T11:20:00.301Z,29.39
2022-08-26T11:20:45.996Z,29.41
2022-08-26T11:21:44.799Z,29.44
2022-08-26T11:22:47.842Z,29.48
2022-08-26T11:23:44.723Z,29.54
2022-08-26T11:24:45.726Z,29.62
2022-08-26T11:25:44.716Z,29.63
2022-08-26T11:26:56.061Z,29.64
2022-08-26T11:27:45.747Z,29.67
2022-08-26T11:28:44.688Z,29.76
2022-08-26T11:29:44.668Z,29.76
2022-08-26T11:30:44.653Z,29.71
2022-08-26T11:31:44.701Z,29.60
2022-08-26T11:32:44.626Z,29.51
2022-08-26T11:33:44.604Z,29.44
2022-08-26T11:34:44.650Z,29.37
2022-08-26T11:35:44.592Z,29.35
2022-08-26T11:36:44.574Z,29.32
2022-08-26T11:37:44.566Z,29.37
2022-08-26T11:38:44.531Z,29.41
2022-08-26T11:39:46.864Z,29.39
2022-08-26T11:40:45.584Z,29.32
2022-08-26T11:41:44.507Z,29.32
2022-08-26T11:42:44.498Z,29.36
2022-08-26T11:43:44.494Z,29.36
2022-08-26T11:44:49.438Z,29.33
2022-08-26T11:45:45.566Z,29.30
2022-08-26T11:46:44.473Z,29.18
2022-08-26T11:47:44.426Z,28.97
2022-08-26T11:48:44.430Z,28.17
2022-08-26T11:49:44.470Z,27.49
2022-08-26T11:50:44.416Z,26.87
2022-08-26T11:51:48.154Z,26.20
2022-08-26T11:52:44.376Z,25.74
2022-08-26T11:53:44.433Z,25.46
2022-08-26T11:54:44.347Z,25.46
2022-08-26T11:55:44.354Z,25.54
2022-08-26T11:56:44.329Z,25.45
2022-08-26T11:57:44.319Z,25.26
2022-08-26T11:58:44.346Z,25.23
2022-08-26T11:59:44.287Z,25.19
2022-08-26T12:00:45.679Z,25.04
2022-08-26T12:01:44.281Z,24.92
2022-08-26T12:02:44.247Z,24.74
2022-08-26T12:03:44.293Z,24.64
2022-08-26T12:04:44.298Z,24.53
2022-08-26T12:05:44.216Z,24.44
2022-08-26T12:06:45.239Z,24.41
2022-08-26T12:07:44.238Z,24.36
2022-08-26T12:08:44.176Z,24.34
2022-08-26T12:09:44.147Z,24.36
2022-08-26T12:10:44.155Z,24.27
2022-08-26T12:11:44.246Z,24.18
2022-08-26T12:12:44.126Z,24.16
2022-08-26T12:13:44.097Z,24.16
2022-08-26T12:14:44.112Z,24.12
2022-08-26T12:15:44.083Z,24.12
2022-08-26T12:16:44.098Z,24.18
2022-08-26T12:17:44.080Z,24.30
2022-08-26T12:18:44.865Z,24.42
2022-08-26T12:19:44.036Z,24.48
2022-08-26T12:20:44.026Z,24.48
2022-08-26T12:21:43.998Z,24.48
2022-08-26T12:22:48.231Z,24.51
2022-08-26T12:23:43.967Z,24.55
2022-08-26T12:24:43.968Z,24.45
2022-08-26T12:25:44.193Z,24.36
2022-08-26T12:26:43.982Z,24.34
2022-08-26T12:27:43.916Z,24.36
2022-08-26T12:28:43.896Z,24.29
2022-08-26T12:29:43.889Z,24.21
2022-08-26T12:30:43.907Z,24.14
2022-08-26T12:31:43.873Z,24.19
2022-08-26T12:32:56.557Z,24.16
2022-08-26T12:33:44.863Z,24.19
2022-08-26T12:34:43.855Z,24.27
2022-08-26T12:35:43.857Z,24.37
2022-08-26T12:36:43.883Z,24.45
2022-08-26T12:37:43.805Z,24.45
2022-08-26T12:38:43.863Z,24.36
2022-08-26T12:39:43.814Z,24.26
2022-08-26T12:40:43.800Z,24.18
2022-08-26T12:41:43.763Z,24.11
2022-08-26T12:42:43.744Z,24.04
2022-08-26T12:43:43.762Z,23.96
2022-08-26T12:44:54.313Z,23.90
2022-08-26T12:45:44.767Z,23.90
2022-08-26T12:46:47.876Z,23.84
2022-08-26T12:47:44.678Z,23.63
2022-08-26T12:48:43.665Z,23.39
2022-08-26T12:49:43.651Z,23.18
2022-08-26T12:50:43.634Z,22.97
2022-08-26T12:51:43.632Z,22.82
2022-08-26T12:52:43.604Z,22.70
2022-08-26T12:53:43.620Z,22.61
2022-08-26T12:54:43.603Z,22.56